Time;durP1;ratioP1;P1;durP2;ratioP2;P2;SDS_P1;SDS_P2;PMS_P1;PMS_P2;Temp;Humidity;BMP_temperature;BMP_pressure;BME280_temperature;BME280_humidity;BME280_pressure;Samples;Min_cycle;Max_cycle;Signal;HPM_P1;HPM_P2
2022/04/18 00:01:40;;;;;;;2.28;2.17;;;5.80;99.90;;;;;;477068;249;27994;-71
2022/04/18 00:03:41;;;;;;;2.33;2.22;;;5.80;99.90;;;;;;477043;249;27436;-74
2022/04/18 00:05:42;;;;;;;2.72;2.35;;;5.70;99.90;;;;;;477083;248;27476;-71
2022/04/18 00:07:44;;;;;;;2.78;2.33;;;5.50;99.90;;;;;;477061;248;27419;-72
2022/04/18 00:09:45;;;;;;;2.47;2.28;;;5.30;99.90;;;;;;477093;248;27428;-70
2022/04/18 00:11:46;;;;;;;2.90;2.62;;;5.20;99.90;;;;;;477072;248;27495;-72
2022/04/18 00:13:47;;;;;;;3.00;2.70;;;5.10;99.90;;;;;;477062;249;27510;-72
2022/04/18 00:15:49;;;;;;;2.50;2.30;;;5.00;99.90;;;;;;477056;249;27947;-71
2022/04/18 00:17:50;;;;;;;2.58;2.37;;;5.00;99.90;;;;;;477064;248;27917;-71
2022/04/18 00:19:51;;;;;;;3.22;2.90;;;5.00;99.90;;;;;;477048;248;27507;-71
2022/04/18 00:21:52;;;;;;;2.90;2.70;;;5.10;99.90;;;;;;477034;249;27392;-71
2022/04/18 00:23:54;;;;;;;3.22;2.92;;;5.10;99.90;;;;;;477082;249;27515;-76
2022/04/18 00:25:55;;;;;;;5.32;2.60;;;5.20;99.90;;;;;;477036;248;27479;-73
2022/04/18 00:27:56;;;;;;;3.12;2.85;;;5.20;99.90;;;;;;477049;249;27431;-71
2022/04/18 00:29:57;;;;;;;3.20;2.90;;;5.30;99.90;;;;;;477061;248;27977;-70
2022/04/18 00:31:59;;;;;;;3.05;2.85;;;5.40;99.90;;;;;;477079;248;27994;-70
2022/04/18 00:34:00;;;;;;;3.28;2.97;;;5.50;99.90;;;;;;477105;248;27912;-70
2022/04/18 00:36:02;;;;;;;2.78;2.58;;;5.60;99.90;;;;;;477068;248;27483;-71
2022/04/18 00:38:04;;;;;;;3.08;2.80;;;5.50;99.90;;;;;;477062;248;27381;-70
2022/04/18 00:40:06;;;;;;;2.92;2.78;;;5.30;99.90;;;;;;477077;248;27910;-71
2022/04/18 00:42:06;;;;;;;3.12;2.83;;;5.30;99.90;;;;;;477003;249;27868;-72
2022/04/18 00:44:07;;;;;;;3.22;3.00;;;5.30;99.90;;;;;;477088;248;27905;-70
2022/04/18 00:46:09;;;;;;;2.92;2.75;;;5.30;99.90;;;;;;477082;248;27412;-71
2022/04/18 00:48:10;;;;;;;2.62;2.42;;;5.30;99.90;;;;;;477053;248;27468;-70
2022/04/18 00:50:11;;;;;;;2.40;2.20;;;5.30;99.90;;;;;;477075;248;27440;-73
2022/04/18 00:52:12;;;;;;;2.60;2.50;;;5.20;99.90;;;;;;477025;248;27416;-75
2022/04/18 00:54:14;;;;;;;2.80;2.60;;;5.20;99.90;;;;;;477093;248;27388;-71
2022/04/18 00:56:15;;;;;;;2.80;2.60;;;5.30;99.90;;;;;;477119;248;27900;-74
2022/04/18 00:58:16;;;;;;;2.30;2.20;;;5.30;99.90;;;;;;477079;248;27847;-70
2022/04/18 01:00:17;;;;;;;2.50;2.30;;;5.40;99.90;;;;;;477104;248;28021;-71
2022/04/18 01:02:19;;;;;;;2.25;2.15;;;5.50;99.90;;;;;;477076;248;27416;-70
2022/04/18 01:04:20;;;;;;;3.30;2.22;;;5.50;99.90;;;;;;477059;248;27420;-71
2022/04/18 01:06:21;;;;;;;2.22;2.12;;;5.60;99.90;;;;;;477085;248;27555;-72
2022/04/18 01:08:24;;;;;;;2.15;2.05;;;5.50;99.90;;;;;;481152;245;27434;-71
2022/04/18 01:10:24;;;;;;;2.47;2.30;;;5.50;99.90;;;;;;485362;243;27507;-72
2022/04/18 01:12:25;;;;;;;2.00;1.90;;;5.40;99.90;;;;;;482955;243;27459;-71
2022/04/18 01:14:26;;;;;;;2.20;2.10;;;5.30;99.90;;;;;;487714;238;27882;-72
2022/04/18 01:16:27;;;;;;;2.53;1.95;;;5.30;99.90;;;;;;485237;238;27990;-70
2022/04/18 01:18:29;;;;;;;2.10;2.00;;;5.30;99.90;;;;;;488310;238;27554;-73
2022/04/18 01:20:30;;;;;;;2.25;2.15;;;5.20;99.90;;;;;;477029;248;27415;-73
2022/04/18 01:22:31;;;;;;;2.55;2.12;;;5.30;99.90;;;;;;477067;248;27412;-71
2022/04/18 01:29:12;;;;;;;2.28;2.17;;;5.50;99.90;;;;;;477064;248;27511;-72
2022/04/18 01:31:13;;;;;;;2.40;2.20;;;5.60;99.90;;;;;;477028;248;27486;-71
2022/04/18 01:33:14;;;;;;;2.70;2.50;;;5.60;99.90;;;;;;477061;248;27453;-71
2022/04/18 01:35:16;;;;;;;2.40;2.30;;;5.70;99.90;;;;;;477074;248;27412;-71
2022/04/18 01:37:17;;;;;;;2.42;2.30;;;5.70;99.90;;;;;;477010;248;27467;-70
2022/04/18 01:39:18;;;;;;;2.60;2.40;;;5.60;99.90;;;;;;477061;248;27476;-74
2022/04/18 01:41:20;;;;;;;2.50;2.30;;;5.60;99.90;;;;;;477069;248;28074;-70
2022/04/18 01:43:22;;;;;;;2.30;2.20;;;5.60;99.90;;;;;;477064;248;27432;-71
2022/04/18 01:45:23;;;;;;;2.80;2.60;;;5.50;99.90;;;;;;477100;248;27938;-72
2022/04/18 01:47:24;;;;;;;2.83;2.62;;;5.60;99.90;;;;;;477078;248;27981;-70
2022/04/18 01:49:27;;;;;;;2.67;2.47;;;5.70;99.90;;;;;;477066;249;27408;-71
2022/04/18 01:51:28;;;;;;;2.45;2.33;;;5.70;99.90;;;;;;477093;248;27829;-70
2022/04/18 01:53:30;;;;;;;2.62;2.50;;;5.70;99.90;;;;;;477044;248;28151;-70
2022/04/18 01:55:30;;;;;;;2.42;2.33;;;5.70;99.90;;;;;;477031;248;27527;-70
2022/04/18 01:57:32;;;;;;;2.65;2.45;;;5.70;99.90;;;;;;477061;249;27424;-71
2022/04/18 01:59:33;;;;;;;2.87;2.67;;;5.60;99.90;;;;;;477040;249;27507;-71
2022/04/18 02:01:34;;;;;;;2.90;2.70;;;5.50;99.90;;;;;;477089;248;27380;-72
2022/04/18 02:03:35;;;;;;;2.90;2.70;;;5.50;99.90;;;;;;477105;248;27476;-71
2022/04/18 02:05:37;;;;;;;3.00;2.70;;;5.50;99.90;;;;;;477843;248;27971;-70
2022/04/18 02:07:38;;;;;;;3.00;2.80;;;5.60;99.90;;;;;;477860;248;27874;-71
2022/04/18 02:09:39;;;;;;;2.72;2.55;;;5.60;99.90;;;;;;477868;248;27902;-73
2022/04/18 02:11:40;;;;;;;2.62;2.45;;;5.50;99.90;;;;;;477847;248;27367;-71
2022/04/18 02:13:42;;;;;;;2.50;2.40;;;5.40;99.90;;;;;;477883;248;27494;-70
2022/04/18 02:15:43;;;;;;;2.45;2.35;;;5.20;99.90;;;;;;477817;248;27475;-71
2022/04/18 02:17:44;;;;;;;2.50;2.30;;;4.80;99.90;;;;;;477874;249;27477;-71
2022/04/18 02:19:46;;;;;;;2.70;2.47;;;4.50;99.90;;;;;;477894;248;27418;-77
2022/04/18 02:21:47;;;;;;;3.17;2.87;;;4.20;99.90;;;;;;477854;248;27843;-71
2022/04/18 02:23:48;;;;;;;2.80;2.60;;;4.00;99.90;;;;;;477883;248;27935;-72
2022/04/18 02:25:49;;;;;;;2.70;2.50;;;4.00;99.90;;;;;;477858;248;27829;-71
2022/04/18 02:27:51;;;;;;;2.58;2.37;;;4.00;99.90;;;;;;477822;248;27474;-71
2022/04/18 02:29:52;;;;;;;2.58;2.40;;;3.90;99.90;;;;;;477824;249;27418;-70
2022/04/18 02:34:12;;;;;;;2.65;2.45;;;4.00;99.90;;;;;;477847;249;27503;-71
2022/04/18 02:36:13;;;;;;;2.65;2.55;;;4.00;99.90;;;;;;477863;248;27428;-71
2022/04/18 02:38:15;;;;;;;2.60;2.50;;;4.10;99.90;;;;;;477823;248;27407;-71
2022/04/18 02:40:16;;;;;;;2.30;2.20;;;4.00;99.90;;;;;;477847;248;27514;-72
2022/04/18 02:42:17;;;;;;;2.35;2.25;;;4.00;99.90;;;;;;477867;248;27378;-73
2022/04/18 02:44:18;;;;;;;2.70;2.50;;;3.90;99.90;;;;;;477775;248;27527;-73
2022/04/18 02:46:20;;;;;;;2.80;2.60;;;3.90;99.90;;;;;;477820;248;27386;-70
2022/04/18 02:48:21;;;;;;;2.83;2.62;;;4.00;99.90;;;;;;477831;248;27430;-72
2022/04/18 02:50:22;;;;;;;2.62;2.42;;;4.00;99.90;;;;;;477801;248;28728;-73
2022/04/18 02:52:23;;;;;;;3.03;2.60;;;4.10;99.90;;;;;;477784;248;27911;-72
2022/04/18 02:54:25;;;;;;;2.53;2.40;;;4.20;99.90;;;;;;477716;248;27886;-72
2022/04/18 02:56:26;;;;;;;2.85;2.62;;;4.20;99.90;;;;;;477796;248;27371;-71
2022/04/18 02:58:27;;;;;;;2.28;2.17;;;4.20;99.90;;;;;;477818;248;27399;-71
2022/04/18 03:00:28;;;;;;;2.67;2.58;;;4.30;99.90;;;;;;477774;248;27513;-73
2022/04/18 03:02:30;;;;;;;2.45;2.33;;;4.10;99.90;;;;;;477834;247;27487;-71
2022/04/18 03:04:31;;;;;;;2.20;2.10;;;4.00;99.90;;;;;;477798;248;27424;-72
2022/04/18 03:06:32;;;;;;;2.15;2.05;;;3.80;99.90;;;;;;477821;248;27391;-71
2022/04/18 03:08:33;;;;;;;2.53;2.33;;;3.70;99.90;;;;;;477855;248;27479;-71
2022/04/18 03:12:54;;;;;;;2.35;2.25;;;3.60;99.90;;;;;;477846;249;27466;-74
2022/04/18 03:14:56;;;;;;;3.00;2.70;;;3.60;99.90;;;;;;477883;248;27422;-70
2022/04/18 03:16:57;;;;;;;2.80;2.70;;;3.50;99.90;;;;;;477838;248;27384;-71
2022/04/18 03:18:59;;;;;;;2.90;2.80;;;3.60;99.90;;;;;;477868;248;27388;-72
2022/04/18 03:20:59;;;;;;;2.80;2.70;;;3.60;99.90;;;;;;477846;248;27470;-72
2022/04/18 03:23:01;;;;;;;2.60;2.50;;;3.60;99.90;;;;;;477856;248;27364;-71
2022/04/18 03:25:02;;;;;;;2.80;2.60;;;3.60;99.90;;;;;;477867;248;27419;-71
2022/04/18 03:27:03;;;;;;;2.50;2.30;;;3.60;99.90;;;;;;477874;248;27965;-75
2022/04/18 03:29:04;;;;;;;2.40;2.20;;;3.60;99.90;;;;;;477842;248;27865;-71
2022/04/18 03:31:06;;;;;;;2.37;2.28;;;3.60;99.90;;;;;;477869;248;27894;-73
2022/04/18 03:33:07;;;;;;;2.60;2.40;;;3.60;99.90;;;;;;477834;249;27879;-71
2022/04/18 03:35:08;;;;;;;2.42;2.33;;;3.60;99.90;;;;;;477841;248;27486;-70
2022/04/18 03:41:48;;;;;;;2.20;2.10;;;3.60;99.90;;;;;;477854;249;27494;-73
2022/04/18 03:43:51;;;;;;;2.60;2.40;;;3.70;99.90;;;;;;477864;248;27423;-77
2022/04/18 03:45:51;;;;;;;2.37;2.20;;;3.70;99.90;;;;;;477796;248;27435;-73
2022/04/18 03:47:52;;;;;;;2.10;2.00;;;3.60;99.90;;;;;;477854;248;27488;-73
2022/04/18 03:49:54;;;;;;;2.55;2.35;;;3.60;99.90;;;;;;477829;248;27834;-73
2022/04/18 03:51:55;;;;;;;2.40;2.20;;;3.50;99.90;;;;;;477865;248;27889;-73
2022/04/18 03:53:56;;;;;;;2.20;2.10;;;3.50;99.90;;;;;;477848;248;28064;-73
2022/04/18 03:55:57;;;;;;;2.25;2.15;;;3.50;99.90;;;;;;477829;248;27833;-73
2022/04/18 03:57:59;;;;;;;2.40;2.30;;;3.60;99.90;;;;;;477827;248;27482;-73
2022/04/18 04:00:00;;;;;;;2.37;2.28;;;3.40;99.90;;;;;;477857;248;27378;-73
2022/04/18 04:02:01;;;;;;;2.40;2.30;;;3.30;99.90;;;;;;477795;248;27431;-73
2022/04/18 04:04:02;;;;;;;2.75;2.62;;;3.20;99.90;;;;;;477822;249;27495;-72
2022/04/18 04:06:04;;;;;;;2.55;2.45;;;3.20;99.90;;;;;;477843;248;27375;-73
2022/04/18 04:08:05;;;;;;;2.42;2.28;;;3.30;99.90;;;;;;477834;248;27426;-75
2022/04/18 04:10:06;;;;;;;2.67;2.53;;;3.40;99.90;;;;;;477851;248;27466;-72
2022/04/18 04:12:07;;;;;;;2.47;2.37;;;3.40;99.90;;;;;;477841;248;27507;-72
2022/04/18 04:14:09;;;;;;;2.20;2.10;;;3.50;99.90;;;;;;477846;248;27416;-73
2022/04/18 04:16:10;;;;;;;2.67;2.47;;;3.50;99.90;;;;;;477846;248;27376;-72
2022/04/18 04:18:11;;;;;;;2.55;2.45;;;3.50;99.90;;;;;;477814;248;27914;-72
2022/04/18 04:20:12;;;;;;;2.30;2.20;;;3.40;99.90;;;;;;477848;248;27854;-73
2022/04/18 04:22:14;;;;;;;2.37;2.28;;;3.20;99.90;;;;;;477828;248;27933;-73
2022/04/18 04:24:15;;;;;;;2.90;2.70;;;3.00;99.90;;;;;;477826;248;27379;-72
2022/04/18 04:26:16;;;;;;;2.20;2.10;;;2.90;99.90;;;;;;477852;248;27943;-72
2022/04/18 04:28:17;;;;;;;3.05;2.85;;;2.70;99.90;;;;;;477877;248;27970;-74
2022/04/18 04:30:19;;;;;;;3.25;2.83;;;2.50;99.90;;;;;;477848;248;27827;-72
2022/04/18 04:32:20;;;;;;;2.80;2.70;;;2.40;99.90;;;;;;477890;248;27898;-72
2022/04/18 04:34:21;;;;;;;2.97;2.87;;;2.30;99.90;;;;;;477846;248;27404;-73
2022/04/18 04:36:22;;;;;;;2.60;2.50;;;2.40;99.90;;;;;;477861;248;27415;-72
2022/04/18 04:38:24;;;;;;;3.00;2.70;;;2.60;99.90;;;;;;477842;248;27403;-75
2022/04/18 04:40:26;;;;;;;2.80;2.60;;;2.60;99.90;;;;;;477820;248;27399;-72
2022/04/18 04:42:26;;;;;;;3.22;2.95;;;2.50;99.90;;;;;;477770;248;27514;-73
2022/04/18 04:44:27;;;;;;;3.40;3.10;;;2.60;99.90;;;;;;477841;248;27416;-72
2022/04/18 04:46:29;;;;;;;3.30;3.10;;;2.70;99.90;;;;;;477823;247;27474;-73
2022/04/18 04:48:30;;;;;;;3.25;3.15;;;2.80;99.90;;;;;;477824;248;27491;-72
2022/04/18 04:50:31;;;;;;;2.70;2.60;;;2.90;99.90;;;;;;477832;248;27407;-73
2022/04/18 04:52:32;;;;;;;3.00;2.80;;;2.90;99.90;;;;;;477804;248;27422;-73
2022/04/18 04:54:34;;;;;;;2.80;2.65;;;2.90;99.90;;;;;;477867;248;27967;-74
2022/04/18 04:56:35;;;;;;;2.80;2.70;;;2.90;99.90;;;;;;477835;248;27933;-72
2022/04/18 04:58:36;;;;;;;2.40;2.30;;;3.00;99.90;;;;;;477077;244;27952;-73
2022/04/18 05:00:37;;;;;;;2.97;2.75;;;3.10;99.90;;;;;;475726;249;27946;-73
2022/04/18 05:02:39;;;;;;;3.03;2.80;;;3.10;99.90;;;;;;475692;249;27599;-73
2022/04/18 05:04:40;;;;;;;2.95;2.75;;;3.10;99.90;;;;;;475736;249;27505;-73
2022/04/18 05:06:41;;;;;;;3.05;2.90;;;3.10;99.90;;;;;;475698;249;27515;-73
2022/04/18 05:08:42;;;;;;;3.10;2.80;;;3.10;99.90;;;;;;475714;249;27512;-72
2022/04/18 05:10:44;;;;;;;2.95;2.65;;;3.10;99.90;;;;;;475729;249;27472;-72
2022/04/18 05:12:45;;;;;;;3.00;2.80;;;3.00;99.90;;;;;;475719;249;28007;-72
2022/04/18 05:14:46;;;;;;;3.45;3.10;;;3.00;99.90;;;;;;475697;249;28171;-74
2022/04/18 05:16:47;;;;;;;3.70;3.50;;;3.10;99.90;;;;;;475744;249;27958;-72
2022/04/18 05:18:49;;;;;;;3.40;3.20;;;3.20;99.90;;;;;;475703;249;29061;-72
2022/04/18 05:20:50;;;;;;;3.28;3.08;;;3.30;99.90;;;;;;475718;249;27462;-73
2022/04/18 05:22:51;;;;;;;4.10;3.90;;;3.30;99.90;;;;;;475735;249;27517;-72
2022/04/18 05:24:55;;;;;;;4.97;4.60;;;3.30;99.90;;;;;;475704;249;27512;-72
2022/04/18 05:26:54;;;;;;;4.37;4.18;;;3.30;99.90;;;;;;475628;249;27489;-72
2022/04/18 05:28:55;;;;;;;4.10;3.80;;;3.30;99.90;;;;;;475705;249;27587;-73
2022/04/18 05:30:56;;;;;;;3.80;3.60;;;3.30;99.90;;;;;;475705;249;27561;-73
2022/04/18 05:32:57;;;;;;;3.58;3.37;;;3.20;99.90;;;;;;475746;249;27548;-73
2022/04/18 05:34:59;;;;;;;3.90;3.70;;;3.30;99.90;;;;;;475725;249;27890;-76
2022/04/18 05:37:00;;;;;;;4.03;3.75;;;3.30;99.90;;;;;;475699;249;27566;-72
2022/04/18 05:39:01;;;;;;;3.40;3.20;;;3.40;99.90;;;;;;475729;250;27949;-74
2022/04/18 05:41:02;;;;;;;3.95;3.70;;;3.50;99.90;;;;;;475673;249;27926;-73
2022/04/18 05:43:04;;;;;;;3.80;3.50;;;3.60;99.90;;;;;;475740;249;27983;-72
2022/04/18 05:45:05;;;;;;;4.15;3.95;;;3.70;99.90;;;;;;475748;249;27999;-74
2022/04/18 05:47:06;;;;;;;3.90;3.78;;;3.80;99.90;;;;;;475672;249;27562;-72
2022/04/18 05:49:08;;;;;;;3.20;3.10;;;3.90;99.90;;;;;;475714;249;27527;-73
2022/04/18 05:51:09;;;;;;;3.60;3.40;;;4.10;99.90;;;;;;475718;249;27461;-72
2022/04/18 05:53:10;;;;;;;3.35;3.22;;;4.20;99.90;;;;;;475713;249;27506;-73
2022/04/18 05:55:11;;;;;;;2.90;2.80;;;4.30;99.90;;;;;;475767;249;27524;-73
2022/04/18 05:57:12;;;;;;;3.75;3.45;;;4.30;99.90;;;;;;475755;249;27469;-72
2022/04/18 05:59:14;;;;;;;3.87;3.67;;;3.90;99.90;;;;;;475711;249;27590;-74
2022/04/18 06:01:15;;;;;;;3.40;3.17;;;3.80;99.90;;;;;;475768;249;27531;-71
2022/04/18 06:03:16;;;;;;;4.00;3.80;;;3.70;99.90;;;;;;475739;249;27649;-73
2022/04/18 06:05:17;;;;;;;3.35;3.15;;;3.80;99.90;;;;;;475753;250;27992;-73
2022/04/18 06:07:19;;;;;;;3.50;3.37;;;3.80;99.90;;;;;;475759;249;28000;-72
2022/04/18 06:09:20;;;;;;;3.50;3.40;;;3.90;99.90;;;;;;475731;250;27982;-72
2022/04/18 06:11:21;;;;;;;4.03;3.83;;;4.00;99.90;;;;;;475737;249;27609;-72
2022/04/18 06:13:23;;;;;;;4.25;3.95;;;4.10;99.90;;;;;;475734;249;27493;-73
2022/04/18 06:15:24;;;;;;;3.50;3.20;;;4.20;99.90;;;;;;475742;249;27623;-74
2022/04/18 06:17:25;;;;;;;3.08;2.85;;;4.40;99.90;;;;;;475736;249;27472;-73
2022/04/18 06:19:26;;;;;;;3.20;3.10;;;4.50;99.90;;;;;;475730;250;27589;-73
2022/04/18 06:21:28;;;;;;;3.90;3.70;;;4.70;99.90;;;;;;475689;249;27461;-73
2022/04/18 06:23:29;;;;;;;4.12;3.92;;;4.90;99.90;;;;;;475733;249;27469;-73
2022/04/18 06:25:30;;;;;;;4.12;3.92;;;5.10;99.90;;;;;;475709;249;28011;-73
2022/04/18 06:27:31;;;;;;;4.03;3.83;;;5.20;99.90;;;;;;475744;249;27995;-73
2022/04/18 06:29:33;;;;;;;3.87;3.67;;;5.10;99.90;;;;;;475734;249;27532;-73
2022/04/18 06:31:34;;;;;;;3.58;3.40;;;5.20;99.90;;;;;;475696;249;27496;-72
2022/04/18 06:33:35;;;;;;;3.85;3.55;;;5.20;99.90;;;;;;475751;249;27548;-72
2022/04/18 06:35:36;;;;;;;3.37;3.08;;;5.30;99.90;;;;;;475741;250;27511;-73
2022/04/18 06:37:38;;;;;;;3.62;3.42;;;5.80;99.90;;;;;;475745;249;27481;-72
2022/04/18 06:39:39;;;;;;;4.40;4.10;;;6.30;99.90;;;;;;475753;249;27516;-72
2022/04/18 06:41:40;;;;;;;4.65;4.25;;;6.60;99.90;;;;;;475748;249;28008;-72
2022/04/18 06:43:41;;;;;;;4.55;4.15;;;6.70;99.90;;;;;;475737;249;27986;-73
2022/04/18 06:45:43;;;;;;;4.97;3.90;;;6.80;99.90;;;;;;475765;249;27642;-73
2022/04/18 06:47:44;;;;;;;4.28;3.80;;;6.90;99.90;;;;;;475706;249;27470;-73
2022/04/18 06:49:47;;;;;;;4.65;4.20;;;6.80;99.90;;;;;;475752;249;27529;-71
2022/04/18 06:51:47;;;;;;;4.80;4.40;;;6.90;99.90;;;;;;475672;249;28012;-77
2022/04/18 06:53:48;;;;;;;5.53;4.22;;;7.10;99.90;;;;;;475753;249;27497;-73
2022/04/18 06:58:06;;;;;;;5.55;4.50;;;7.20;99.90;;;;;;463159;256;27460;-72
2022/04/18 07:00:07;;;;;;;4.33;3.93;;;7.20;99.90;;;;;;456006;256;28771;-72
2022/04/18 07:02:08;;;;;;;4.82;4.43;;;7.30;99.90;;;;;;475774;247;29372;-71
2022/04/18 07:04:09;;;;;;;4.80;4.40;;;7.50;99.90;;;;;;480108;244;27515;-72
2022/04/18 07:06:11;;;;;;;4.55;4.15;;;7.60;99.90;;;;;;483420;245;27377;-72
2022/04/18 07:08:12;;;;;;;4.30;3.90;;;7.60;99.90;;;;;;483461;245;27470;-72
2022/04/18 07:10:13;;;;;;;4.70;4.30;;;7.50;99.90;;;;;;483467;245;28381;-73
2022/04/18 07:12:14;;;;;;;4.93;4.20;;;7.40;99.90;;;;;;483529;245;28317;-73
2022/04/18 07:14:19;;;;;;;4.27;3.90;;;7.40;99.90;;;;;;483539;245;28518;-74
2022/04/18 07:16:20;;;;;;;4.30;4.00;;;7.40;99.90;;;;;;483499;245;27750;-73
2022/04/18 07:18:21;;;;;;;4.40;4.10;;;7.40;99.90;;;;;;483563;245;27918;-72
2022/04/18 07:20:22;;;;;;;4.93;4.43;;;7.70;99.90;;;;;;483561;245;28724;-72
2022/04/18 07:22:27;;;;;;;4.90;3.43;;;8.00;99.90;;;;;;483527;245;28266;-76
2022/04/18 07:24:29;;;;;;;4.63;3.90;;;8.20;99.90;;;;;;483529;246;27834;-73
2022/04/18 07:26:30;;;;;;;4.70;4.27;;;8.10;99.90;;;;;;483556;245;27882;-72
2022/04/18 07:30:37;;;;;;;4.43;4.03;;;8.50;99.90;;;;;;495789;240;28422;-71
2022/04/18 07:32:39;;;;;;;4.80;3.80;;;8.60;99.90;;;;;;505606;235;28305;-73
2022/04/18 07:34:40;;;;;;;5.50;3.80;;;8.60;99.90;;;;;;492645;240;28479;-72
2022/04/18 07:36:41;;;;;;;4.00;3.60;;;8.80;99.90;;;;;;496501;239;27798;-73
2022/04/18 07:38:51;;;;;;;7.00;3.70;;;9.00;99.90;;;;;;501473;236;27932;-74
2022/04/18 07:40:53;;;;;;;4.33;3.93;;;9.00;99.90;;;;;;500679;237;28383;-70
2022/04/18 07:42:54;;;;;;;6.17;3.80;;;9.00;99.90;;;;;;511520;232;28457;-73
2022/04/18 07:44:55;;;;;;;4.30;3.40;;;9.10;99.90;;;;;;500857;235;28374;-74
2022/04/18 07:46:58;;;;;;;4.73;3.40;;;9.10;99.90;;;;;;500846;235;28631;-72
2022/04/18 07:48:59;;;;;;;5.50;3.70;;;9.20;99.90;;;;;;500856;235;27992;-73
2022/04/18 07:53:19;;;;;;;4.87;3.57;;;9.40;99.90;;;;;;500978;235;27836;-73
2022/04/18 07:55:20;;;;;;;4.47;3.30;;;9.30;99.90;;;;;;511523;232;27978;-73
2022/04/18 07:57:21;;;;;;;4.17;3.30;;;9.40;99.90;;;;;;500843;237;27558;-74
2022/04/18 07:59:22;;;;;;;3.90;3.40;;;9.40;99.90;;;;;;511343;232;27880;-74
2022/04/18 08:01:24;;;;;;;3.60;3.20;;;9.50;99.90;;;;;;500678;234;28261;-73
2022/04/18 08:05:29;;;;;;;3.17;2.87;;;9.70;99.90;;;;;;500839;235;27956;-72
2022/04/18 08:07:30;;;;;;;3.90;3.33;;;9.70;99.90;;;;;;509572;232;27937;-77
2022/04/18 08:09:32;;;;;;;4.03;3.40;;;9.70;99.90;;;;;;486953;244;27978;-73
2022/04/18 08:11:33;;;;;;;4.00;3.17;;;9.80;99.40;;;;;;504477;235;27870;-73
2022/04/18 08:13:34;;;;;;;4.00;3.60;;;10.00;99.90;;;;;;486915;244;28172;-73
2022/04/18 08:15:35;;;;;;;4.60;3.87;;;10.10;99.90;;;;;;504589;235;27609;-73
2022/04/18 08:17:39;;;;;;;3.60;3.30;;;10.20;99.90;;;;;;487033;244;28200;-75
2022/04/18 08:19:40;;;;;;;5.97;3.17;;;10.10;99.90;;;;;;504578;235;27725;-71
2022/04/18 08:21:42;;;;;;;2.80;2.60;;;10.00;99.90;;;;;;486952;240;27633;-75
2022/04/18 08:23:43;;;;;;;6.60;2.80;;;9.90;99.90;;;;;;504300;235;27825;-70
2022/04/18 08:25:45;;;;;;;3.67;2.97;;;9.90;99.90;;;;;;486946;244;28001;-76
2022/04/18 08:27:48;;;;;;;3.63;3.17;;;10.10;99.20;;;;;;504462;235;27944;-73
2022/04/18 08:29:55;;;;;;;6.07;3.47;;;10.40;97.10;;;;;;486904;244;28497;-77
2022/04/18 08:31:56;;;;;;;3.63;3.33;;;10.50;97.10;;;;;;504537;235;27840;-70
2022/04/18 08:33:58;;;;;;;3.03;2.80;;;10.40;97.70;;;;;;486980;244;27907;-73
2022/04/18 08:35:59;;;;;;;3.20;2.40;;;10.30;99.10;;;;;;504504;235;28906;-73
2022/04/18 08:38:00;;;;;;;3.97;3.50;;;10.30;99.80;;;;;;487082;244;28175;-73
2022/04/18 08:40:01;;;;;;;3.60;3.30;;;10.60;98.20;;;;;;504677;233;28258;-72
2022/04/18 08:42:03;;;;;;;3.70;3.40;;;10.50;98.10;;;;;;486896;244;28017;-72
2022/04/18 08:44:04;;;;;;;3.57;3.27;;;10.70;98.30;;;;;;504879;235;27839;-74
2022/04/18 08:46:05;;;;;;;3.50;3.20;;;10.60;98.90;;;;;;486365;244;28252;-73
2022/04/18 08:52:46;;;;;;;3.80;3.50;;;10.90;96.90;;;;;;486954;244;28562;-72
2022/04/18 08:54:57;;;;;;;5.60;3.10;;;11.00;96.50;;;;;;504630;235;28325;-73
2022/04/18 08:56:57;;;;;;;3.43;3.13;;;11.00;97.30;;;;;;487070;244;28439;-70
2022/04/18 08:58:58;;;;;;;4.10;3.67;;;11.30;95.60;;;;;;504580;235;28037;-72
2022/04/18 09:01:03;;;;;;;4.10;3.70;;;11.50;94.90;;;;;;487077;244;28067;-74
2022/04/18 09:03:04;;;;;;;3.20;3.00;;;11.60;95.40;;;;;;508130;233;28047;-74
2022/04/18 09:05:05;;;;;;;4.73;3.50;;;11.60;94.90;;;;;;500593;234;28140;-74
2022/04/18 09:07:06;;;;;;;6.03;3.43;;;11.60;94.80;;;;;;500615;235;28639;-72
2022/04/18 09:09:08;;;;;;;5.13;3.60;;;11.60;94.40;;;;;;511256;232;29279;-72
2022/04/18 09:11:09;;;;;;;3.93;3.40;;;11.50;94.00;;;;;;500582;237;28507;-73
2022/04/18 09:13:10;;;;;;;4.77;3.40;;;11.40;92.90;;;;;;511510;232;28164;-73
2022/04/18 09:15:11;;;;;;;3.77;3.47;;;11.20;94.50;;;;;;500922;235;28075;-72
2022/04/18 09:17:13;;;;;;;5.23;3.73;;;11.20;96.10;;;;;;511512;232;28178;-73
2022/04/18 09:19:14;;;;;;;4.97;3.63;;;11.40;94.90;;;;;;500910;234;28195;-74
2022/04/18 09:21:16;;;;;;;4.97;3.37;;;11.70;93.70;;;;;;511518;232;28299;-73
2022/04/18 09:23:18;;;;;;;4.07;3.00;;;11.80;94.40;;;;;;500857;235;28070;-74
2022/04/18 09:25:19;;;;;;;3.87;3.20;;;11.90;94.50;;;;;;511439;232;28137;-73
2022/04/18 09:27:20;;;;;;;3.73;3.43;;;11.90;93.80;;;;;;500895;234;28685;-73
2022/04/18 09:29:21;;;;;;;5.43;3.67;;;11.90;93.80;;;;;;511486;232;28935;-73
2022/04/18 09:31:24;;;;;;;3.33;3.13;;;11.90;93.80;;;;;;500885;234;28644;-72
2022/04/18 09:33:24;;;;;;;3.93;3.23;;;11.90;92.80;;;;;;511451;232;27886;-73
2022/04/18 09:35:25;;;;;;;3.57;3.13;;;12.20;93.40;;;;;;500600;234;28168;-73
2022/04/18 09:37:26;;;;;;;3.60;3.20;;;12.20;92.90;;;;;;511318;232;28250;-73
2022/04/18 09:39:28;;;;;;;3.20;2.90;;;12.00;92.60;;;;;;500635;235;28258;-73
2022/04/18 09:41:30;;;;;;;3.30;3.10;;;;;;;;;;511394;232;28598;-73
2022/04/18 09:43:31;;;;;;;3.03;2.70;;;11.90;94.10;;;;;;500881;237;27687;-74
2022/04/18 09:45:32;;;;;;;3.83;3.00;;;12.00;94.00;;;;;;511502;232;28228;-73
2022/04/18 09:47:34;;;;;;;7.93;3.23;;;12.20;93.10;;;;;;500878;234;28145;-73
2022/04/18 09:49:35;;;;;;;5.53;3.60;;;12.50;92.90;;;;;;500916;235;28330;-73
2022/04/18 09:51:38;;;;;;;4.90;3.13;;;12.30;92.10;;;;;;500931;235;28266;-73
2022/04/18 09:53:37;;;;;;;3.00;2.70;;;12.20;92.60;;;;;;500829;237;28285;-73
2022/04/18 09:55:39;;;;;;;3.07;2.60;;;12.20;93.50;;;;;;500907;235;28252;-73
2022/04/18 09:57:41;;;;;;;4.13;2.87;;;12.20;95.80;;;;;;511520;232;28368;-72
2022/04/18 09:59:42;;;;;;;3.90;3.10;;;12.40;93.90;;;;;;500927;235;28360;-72
2022/04/18 10:01:45;;;;;;;4.30;2.70;;;12.40;93.00;;;;;;511564;232;28414;-74
2022/04/18 10:03:52;;;;;;;19.17;3.17;;;12.60;92.20;;;;;;500945;234;28071;-74
2022/04/18 10:07:51;;;;;;;2.70;2.50;;;12.20;92.70;;;;;;511544;232;28965;-72
2022/04/18 10:09:56;;;;;;;4.37;2.97;;;12.40;93.00;;;;;;500911;235;28906;-72
2022/04/18 10:11:57;;;;;;;3.67;2.83;;;12.60;92.70;;;;;;500947;235;28317;-72
2022/04/18 10:13:58;;;;;;;3.40;3.10;;;12.70;92.10;;;;;;500910;235;28820;-74
2022/04/18 10:15:59;;;;;;;3.57;2.93;;;13.10;92.10;;;;;;500903;235;27958;-73
2022/04/18 10:18:01;;;;;;;3.00;2.80;;;13.00;91.40;;;;;;500911;235;29006;-72
2022/04/18 10:20:03;;;;;;;3.47;3.17;;;12.90;90.90;;;;;;500951;235;29842;-72
2022/04/18 10:22:05;;;;;;;4.13;3.57;;;;;;;;;;500903;235;28760;-72
2022/04/18 10:24:07;;;;;;;3.80;3.00;;;12.90;91.20;;;;;;500931;234;27287;-72
2022/04/18 10:26:07;;;;;;;8.33;3.10;;;12.90;91.10;;;;;;511493;232;28652;-73
2022/04/18 10:28:08;;;;;;;2.97;2.77;;;12.90;91.70;;;;;;500949;234;28910;-72
2022/04/18 10:30:10;;;;;;;3.30;2.60;;;12.90;91.00;;;;;;500962;235;28730;-72
2022/04/18 10:32:11;;;;;;;3.53;2.87;;;13.00;91.00;;;;;;511539;232;28735;-72
2022/04/18 10:34:23;;;;;;;2.67;2.47;;;13.00;90.90;;;;;;500948;234;28109;-72
2022/04/18 10:36:25;;;;;;;2.63;2.43;;;12.90;91.40;;;;;;511525;232;28159;-76
2022/04/18 10:38:26;;;;;;;3.60;2.93;;;13.00;91.30;;;;;;500982;234;28361;-73
2022/04/18 10:40:28;;;;;;;2.63;2.33;;;13.00;90.60;;;;;;511551;232;29218;-73
2022/04/18 10:42:29;;;;;;;2.90;2.70;;;12.90;92.00;;;;;;500895;237;28088;-72
2022/04/18 10:44:30;;;;;;;2.47;2.27;;;13.00;90.60;;;;;;511554;232;28257;-73
2022/04/18 10:46:31;;;;;;;2.90;2.60;;;13.00;91.50;;;;;;500840;233;28345;-74
2022/04/18 10:48:44;;;;;;;5.20;3.00;;;;;;;;;;500939;235;28314;-73
2022/04/18 10:50:45;;;;;;;3.20;2.90;;;12.90;91.00;;;;;;500929;235;27119;-74
2022/04/18 10:52:49;;;;;;;4.03;2.80;;;13.20;90.10;;;;;;500930;235;28881;-72
2022/04/18 10:54:50;;;;;;;3.70;2.77;;;13.30;89.30;;;;;;500944;235;28262;-73
2022/04/18 10:56:51;;;;;;;3.30;2.80;;;13.20;87.10;;;;;;500941;235;28157;-72
2022/04/18 10:58:52;;;;;;;3.23;2.90;;;13.10;89.80;;;;;;511528;232;28629;-73
2022/04/18 11:00:53;;;;;;;3.70;2.70;;;13.00;89.80;;;;;;500919;235;28742;-74
2022/04/18 11:02:55;;;;;;;3.13;2.90;;;13.30;88.80;;;;;;511489;232;28700;-73
2022/04/18 11:05:04;;;;;;;3.13;2.83;;;13.30;89.50;;;;;;500814;235;28188;-73
2022/04/18 11:07:05;;;;;;;4.40;2.93;;;13.60;90.50;;;;;;500850;235;28971;-72
2022/04/18 11:09:07;;;;;;;4.00;2.97;;;13.50;89.80;;;;;;499962;235;28825;-73